<?xml version="1.0" encoding="UTF-8" standalone="no" ?>
<gpx xmlns="http://www.topografix.com/GPX/1/1" xmlns:xsi="http://www.w3.org/2001/XMLSchema-instance" xsi:schemaLocation="http://www.topografix.com/GPX/1/1 http://www.topografix.com/GPX/1/1/gpx.xsd" version="1.1" creator="VisuGPX - https://www.visugpx.com">
  <metadata>
    <name>Voile du 28 avril 2016</name>
    <desc><![CDATA[Sortie vers Maguide par vent de Nord-Ouest et de force 3/force 4.]]></desc>
  </metadata>
  <trk>
    <name><![CDATA[ONmove 100 - 28/04/2016]]></name>
    <trkseg>
      <trkpt lat="44.49419" lon="-1.07929">
        <ele>22</ele>
        <time>2016-04-28T12:42:52Z</time>
      </trkpt>
      <trkpt lat="44.49301" lon="-1.08064">
        <ele>20</ele>
        <time>2016-04-28T12:52:15Z</time>
      </trkpt>
      <trkpt lat="44.4921" lon="-1.08229">
        <ele>20</ele>
        <time>2016-04-28T12:53:34Z</time>
      </trkpt>
      <trkpt lat="44.49114" lon="-1.08387">
        <ele>20</ele>
        <time>2016-04-28T12:55:09Z</time>
      </trkpt>
      <trkpt lat="44.49014" lon="-1.08548">
        <ele>20</ele>
        <time>2016-04-28T12:56:31Z</time>
      </trkpt>
      <trkpt lat="44.48897" lon="-1.08749">
        <ele>20</ele>
        <time>2016-04-28T12:57:48Z</time>
      </trkpt>
      <trkpt lat="44.48804" lon="-1.08977">
        <ele>20</ele>
        <time>2016-04-28T12:59:00Z</time>
      </trkpt>
      <trkpt lat="44.48994" lon="-1.09102">
        <ele>20</ele>
        <time>2016-04-28T13:00:52Z</time>
      </trkpt>
      <trkpt lat="44.49123" lon="-1.09151">
        <ele>20</ele>
        <time>2016-04-28T13:01:54Z</time>
      </trkpt>
      <trkpt lat="44.49021" lon="-1.0939">
        <ele>20</ele>
        <time>2016-04-28T13:03:15Z</time>
      </trkpt>
      <trkpt lat="44.4895" lon="-1.09557">
        <ele>20</ele>
        <time>2016-04-28T13:04:09Z</time>
      </trkpt>
      <trkpt lat="44.48885" lon="-1.09732">
        <ele>20</ele>
        <time>2016-04-28T13:05:03Z</time>
      </trkpt>
      <trkpt lat="44.48838" lon="-1.09916">
        <ele>20</ele>
        <time>2016-04-28T13:05:57Z</time>
      </trkpt>
      <trkpt lat="44.48801" lon="-1.10108">
        <ele>20</ele>
        <time>2016-04-28T13:06:59Z</time>
      </trkpt>
      <trkpt lat="44.48766" lon="-1.10296">
        <ele>20</ele>
        <time>2016-04-28T13:08:01Z</time>
      </trkpt>
      <trkpt lat="44.4872" lon="-1.10483">
        <ele>20</ele>
        <time>2016-04-28T13:09:08Z</time>
      </trkpt>
      <trkpt lat="44.48671" lon="-1.10672">
        <ele>20</ele>
        <time>2016-04-28T13:10:10Z</time>
      </trkpt>
      <trkpt lat="44.48602" lon="-1.10841">
        <ele>20</ele>
        <time>2016-04-28T13:11:04Z</time>
      </trkpt>
      <trkpt lat="44.48537" lon="-1.11029">
        <ele>20</ele>
        <time>2016-04-28T13:12:02Z</time>
      </trkpt>
      <trkpt lat="44.48475" lon="-1.1122">
        <ele>20</ele>
        <time>2016-04-28T13:13:02Z</time>
      </trkpt>
      <trkpt lat="44.48412" lon="-1.11403">
        <ele>20</ele>
        <time>2016-04-28T13:14:04Z</time>
      </trkpt>
      <trkpt lat="44.48347" lon="-1.11589">
        <ele>20</ele>
        <time>2016-04-28T13:15:04Z</time>
      </trkpt>
      <trkpt lat="44.48273" lon="-1.11774">
        <ele>20</ele>
        <time>2016-04-28T13:16:04Z</time>
      </trkpt>
      <trkpt lat="44.48197" lon="-1.1195">
        <ele>20</ele>
        <time>2016-04-28T13:17:03Z</time>
      </trkpt>
      <trkpt lat="44.48107" lon="-1.12113">
        <ele>20</ele>
        <time>2016-04-28T13:17:59Z</time>
      </trkpt>
      <trkpt lat="44.48009" lon="-1.12273">
        <ele>20</ele>
        <time>2016-04-28T13:19:02Z</time>
      </trkpt>
      <trkpt lat="44.4791" lon="-1.12492">
        <ele>20</ele>
        <time>2016-04-28T13:20:19Z</time>
      </trkpt>
      <trkpt lat="44.47831" lon="-1.12723">
        <ele>20</ele>
        <time>2016-04-28T13:21:49Z</time>
      </trkpt>
      <trkpt lat="44.48009" lon="-1.127">
        <ele>20</ele>
        <time>2016-04-28T13:23:18Z</time>
      </trkpt>
      <trkpt lat="44.48185" lon="-1.12742">
        <ele>20</ele>
        <time>2016-04-28T13:24:38Z</time>
      </trkpt>
      <trkpt lat="44.48363" lon="-1.12769">
        <ele>20</ele>
        <time>2016-04-28T13:25:59Z</time>
      </trkpt>
      <trkpt lat="44.48404" lon="-1.13514">
        <ele>20</ele>
        <time>2016-04-28T13:27:14Z</time>
      </trkpt>
      <trkpt lat="44.48257" lon="-1.13679">
        <ele>20</ele>
        <time>2016-04-28T13:28:27Z</time>
      </trkpt>
      <trkpt lat="44.48174" lon="-1.13911">
        <ele>20</ele>
        <time>2016-04-28T13:29:37Z</time>
      </trkpt>
      <trkpt lat="44.48068" lon="-1.14038">
        <ele>20</ele>
        <time>2016-04-28T13:30:35Z</time>
      </trkpt>
      <trkpt lat="44.47956" lon="-1.14149">
        <ele>20</ele>
        <time>2016-04-28T13:31:30Z</time>
      </trkpt>
      <trkpt lat="44.47842" lon="-1.14271">
        <ele>20</ele>
        <time>2016-04-28T13:32:26Z</time>
      </trkpt>
      <trkpt lat="44.47748" lon="-1.14414">
        <ele>20</ele>
        <time>2016-04-28T13:33:20Z</time>
      </trkpt>
      <trkpt lat="44.47651" lon="-1.14555">
        <ele>20</ele>
        <time>2016-04-28T13:34:10Z</time>
      </trkpt>
      <trkpt lat="44.47556" lon="-1.14702">
        <ele>20</ele>
        <time>2016-04-28T13:35:00Z</time>
      </trkpt>
      <trkpt lat="44.47466" lon="-1.14852">
        <ele>20</ele>
        <time>2016-04-28T13:35:48Z</time>
      </trkpt>
      <trkpt lat="44.47373" lon="-1.15002">
        <ele>20</ele>
        <time>2016-04-28T13:36:38Z</time>
      </trkpt>
      <trkpt lat="44.47272" lon="-1.15148">
        <ele>20</ele>
        <time>2016-04-28T13:37:37Z</time>
      </trkpt>
      <trkpt lat="44.47175" lon="-1.15292">
        <ele>20</ele>
        <time>2016-04-28T13:38:31Z</time>
      </trkpt>
      <trkpt lat="44.47139" lon="-1.15487">
        <ele>20</ele>
        <time>2016-04-28T13:39:27Z</time>
      </trkpt>
      <trkpt lat="44.47044" lon="-1.15642">
        <ele>20</ele>
        <time>2016-04-28T13:40:28Z</time>
      </trkpt>
      <trkpt lat="44.46927" lon="-1.15752">
        <ele>20</ele>
        <time>2016-04-28T13:41:26Z</time>
      </trkpt>
      <trkpt lat="44.46809" lon="-1.15866">
        <ele>20</ele>
        <time>2016-04-28T13:42:22Z</time>
      </trkpt>
      <trkpt lat="44.46698" lon="-1.15992">
        <ele>20</ele>
        <time>2016-04-28T13:43:20Z</time>
      </trkpt>
      <trkpt lat="44.46589" lon="-1.16115">
        <ele>20</ele>
        <time>2016-04-28T13:44:25Z</time>
      </trkpt>
      <trkpt lat="44.46478" lon="-1.16246">
        <ele>20</ele>
        <time>2016-04-28T13:45:25Z</time>
      </trkpt>
      <trkpt lat="44.46369" lon="-1.1637">
        <ele>20</ele>
        <time>2016-04-28T13:46:15Z</time>
      </trkpt>
      <trkpt lat="44.46277" lon="-1.16518">
        <ele>20</ele>
        <time>2016-04-28T13:47:03Z</time>
      </trkpt>
      <trkpt lat="44.46169" lon="-1.1665">
        <ele>20</ele>
        <time>2016-04-28T13:47:53Z</time>
      </trkpt>
      <trkpt lat="44.46084" lon="-1.16807">
        <ele>20</ele>
        <time>2016-04-28T13:48:51Z</time>
      </trkpt>
      <trkpt lat="44.46001" lon="-1.16972">
        <ele>20</ele>
        <time>2016-04-28T13:49:52Z</time>
      </trkpt>
      <trkpt lat="44.45919" lon="-1.17135">
        <ele>20</ele>
        <time>2016-04-28T13:51:02Z</time>
      </trkpt>
      <trkpt lat="44.45816" lon="-1.17277">
        <ele>20</ele>
        <time>2016-04-28T13:51:56Z</time>
      </trkpt>
      <trkpt lat="44.45711" lon="-1.17437">
        <ele>20</ele>
        <time>2016-04-28T13:52:54Z</time>
      </trkpt>
      <trkpt lat="44.45616" lon="-1.17612">
        <ele>20</ele>
        <time>2016-04-28T13:53:56Z</time>
      </trkpt>
      <trkpt lat="44.45518" lon="-1.17776">
        <ele>20</ele>
        <time>2016-04-28T13:54:54Z</time>
      </trkpt>
      <trkpt lat="44.45414" lon="-1.17943">
        <ele>20</ele>
        <time>2016-04-28T13:55:52Z</time>
      </trkpt>
      <trkpt lat="44.45256" lon="-1.1795">
        <ele>20</ele>
        <time>2016-04-28T13:56:46Z</time>
      </trkpt>
      <trkpt lat="44.451" lon="-1.17945">
        <ele>20</ele>
        <time>2016-04-28T13:57:38Z</time>
      </trkpt>
      <trkpt lat="44.44942" lon="-1.1793">
        <ele>20</ele>
        <time>2016-04-28T13:58:36Z</time>
      </trkpt>
      <trkpt lat="44.44788" lon="-1.17953">
        <ele>20</ele>
        <time>2016-04-28T13:59:58Z</time>
      </trkpt>
      <trkpt lat="44.4489" lon="-1.17828">
        <ele>20</ele>
        <time>2016-04-28T14:00:56Z</time>
      </trkpt>
      <trkpt lat="44.44979" lon="-1.1768">
        <ele>20</ele>
        <time>2016-04-28T14:01:44Z</time>
      </trkpt>
      <trkpt lat="44.45074" lon="-1.17538">
        <ele>20</ele>
        <time>2016-04-28T14:02:32Z</time>
      </trkpt>
      <trkpt lat="44.45176" lon="-1.17405">
        <ele>20</ele>
        <time>2016-04-28T14:03:22Z</time>
      </trkpt>
      <trkpt lat="44.45286" lon="-1.17285">
        <ele>20</ele>
        <time>2016-04-28T14:04:10Z</time>
      </trkpt>
      <trkpt lat="44.45396" lon="-1.17174">
        <ele>20</ele>
        <time>2016-04-28T14:04:54Z</time>
      </trkpt>
      <trkpt lat="44.4551" lon="-1.17067">
        <ele>20</ele>
        <time>2016-04-28T14:05:44Z</time>
      </trkpt>
      <trkpt lat="44.4561" lon="-1.16939">
        <ele>20</ele>
        <time>2016-04-28T14:06:30Z</time>
      </trkpt>
      <trkpt lat="44.45713" lon="-1.16814">
        <ele>20</ele>
        <time>2016-04-28T14:07:20Z</time>
      </trkpt>
      <trkpt lat="44.4582" lon="-1.1669">
        <ele>20</ele>
        <time>2016-04-28T14:08:08Z</time>
      </trkpt>
      <trkpt lat="44.4592" lon="-1.16558">
        <ele>20</ele>
        <time>2016-04-28T14:08:54Z</time>
      </trkpt>
      <trkpt lat="44.46031" lon="-1.16446">
        <ele>20</ele>
        <time>2016-04-28T14:09:44Z</time>
      </trkpt>
      <trkpt lat="44.4614" lon="-1.16321">
        <ele>20</ele>
        <time>2016-04-28T14:10:32Z</time>
      </trkpt>
      <trkpt lat="44.46239" lon="-1.16186">
        <ele>20</ele>
        <time>2016-04-28T14:11:18Z</time>
      </trkpt>
      <trkpt lat="44.46343" lon="-1.16063">
        <ele>20</ele>
        <time>2016-04-28T14:12:06Z</time>
      </trkpt>
      <trkpt lat="44.46439" lon="-1.15927">
        <ele>20</ele>
        <time>2016-04-28T14:12:54Z</time>
      </trkpt>
      <trkpt lat="44.46537" lon="-1.15795">
        <ele>20</ele>
        <time>2016-04-28T14:13:42Z</time>
      </trkpt>
      <trkpt lat="44.46624" lon="-1.15646">
        <ele>20</ele>
        <time>2016-04-28T14:14:30Z</time>
      </trkpt>
      <trkpt lat="44.46723" lon="-1.15507">
        <ele>20</ele>
        <time>2016-04-28T14:15:24Z</time>
      </trkpt>
      <trkpt lat="44.46816" lon="-1.15364">
        <ele>20</ele>
        <time>2016-04-28T14:16:12Z</time>
      </trkpt>
      <trkpt lat="44.46918" lon="-1.1524">
        <ele>20</ele>
        <time>2016-04-28T14:16:58Z</time>
      </trkpt>
      <trkpt lat="44.4701" lon="-1.15091">
        <ele>20</ele>
        <time>2016-04-28T14:17:44Z</time>
      </trkpt>
      <trkpt lat="44.47103" lon="-1.14955">
        <ele>20</ele>
        <time>2016-04-28T14:18:28Z</time>
      </trkpt>
      <trkpt lat="44.47196" lon="-1.14815">
        <ele>20</ele>
        <time>2016-04-28T14:19:12Z</time>
      </trkpt>
      <trkpt lat="44.47301" lon="-1.14691">
        <ele>20</ele>
        <time>2016-04-28T14:19:58Z</time>
      </trkpt>
      <trkpt lat="44.47398" lon="-1.14557">
        <ele>20</ele>
        <time>2016-04-28T14:20:46Z</time>
      </trkpt>
      <trkpt lat="44.47499" lon="-1.14435">
        <ele>20</ele>
        <time>2016-04-28T14:21:30Z</time>
      </trkpt>
      <trkpt lat="44.47595" lon="-1.14293">
        <ele>20</ele>
        <time>2016-04-28T14:22:18Z</time>
      </trkpt>
      <trkpt lat="44.47688" lon="-1.14159">
        <ele>20</ele>
        <time>2016-04-28T14:23:04Z</time>
      </trkpt>
      <trkpt lat="44.47784" lon="-1.14019">
        <ele>20</ele>
        <time>2016-04-28T14:23:52Z</time>
      </trkpt>
      <trkpt lat="44.47887" lon="-1.13888">
        <ele>20</ele>
        <time>2016-04-28T14:24:36Z</time>
      </trkpt>
      <trkpt lat="44.47978" lon="-1.13742">
        <ele>20</ele>
        <time>2016-04-28T14:25:22Z</time>
      </trkpt>
      <trkpt lat="44.48088" lon="-1.13609">
        <ele>20</ele>
        <time>2016-04-28T14:26:18Z</time>
      </trkpt>
      <trkpt lat="44.48194" lon="-1.1347">
        <ele>20</ele>
        <time>2016-04-28T14:27:10Z</time>
      </trkpt>
      <trkpt lat="44.48294" lon="-1.13321">
        <ele>20</ele>
        <time>2016-04-28T14:28:00Z</time>
      </trkpt>
      <trkpt lat="44.48394" lon="-1.13181">
        <ele>20</ele>
        <time>2016-04-28T14:28:46Z</time>
      </trkpt>
      <trkpt lat="44.48497" lon="-1.13038">
        <ele>20</ele>
        <time>2016-04-28T14:29:32Z</time>
      </trkpt>
      <trkpt lat="44.48597" lon="-1.12894">
        <ele>20</ele>
        <time>2016-04-28T14:30:18Z</time>
      </trkpt>
      <trkpt lat="44.48687" lon="-1.12739">
        <ele>20</ele>
        <time>2016-04-28T14:31:08Z</time>
      </trkpt>
      <trkpt lat="44.48785" lon="-1.12591">
        <ele>20</ele>
        <time>2016-04-28T14:31:56Z</time>
      </trkpt>
      <trkpt lat="44.48863" lon="-1.12421">
        <ele>20</ele>
        <time>2016-04-28T14:32:46Z</time>
      </trkpt>
      <trkpt lat="44.48917" lon="-1.12227">
        <ele>20</ele>
        <time>2016-04-28T14:33:44Z</time>
      </trkpt>
      <trkpt lat="44.48962" lon="-1.12034">
        <ele>20</ele>
        <time>2016-04-28T14:34:39Z</time>
      </trkpt>
      <trkpt lat="44.48996" lon="-1.11839">
        <ele>20</ele>
        <time>2016-04-28T14:35:31Z</time>
      </trkpt>
      <trkpt lat="44.49027" lon="-1.1164">
        <ele>20</ele>
        <time>2016-04-28T14:36:21Z</time>
      </trkpt>
      <trkpt lat="44.49053" lon="-1.11439">
        <ele>20</ele>
        <time>2016-04-28T14:37:13Z</time>
      </trkpt>
      <trkpt lat="44.49079" lon="-1.11238">
        <ele>20</ele>
        <time>2016-04-28T14:38:09Z</time>
      </trkpt>
      <trkpt lat="44.49104" lon="-1.11037">
        <ele>20</ele>
        <time>2016-04-28T14:39:09Z</time>
      </trkpt>
      <trkpt lat="44.49134" lon="-1.10844">
        <ele>20</ele>
        <time>2016-04-28T14:40:01Z</time>
      </trkpt>
      <trkpt lat="44.49167" lon="-1.10647">
        <ele>20</ele>
        <time>2016-04-28T14:40:56Z</time>
      </trkpt>
      <trkpt lat="44.49194" lon="-1.10457">
        <ele>20</ele>
        <time>2016-04-28T14:41:54Z</time>
      </trkpt>
      <trkpt lat="44.49217" lon="-1.10258">
        <ele>20</ele>
        <time>2016-04-28T14:42:48Z</time>
      </trkpt>
      <trkpt lat="44.49222" lon="-1.10057">
        <ele>20</ele>
        <time>2016-04-28T14:43:51Z</time>
      </trkpt>
      <trkpt lat="44.49202" lon="-1.09864">
        <ele>20</ele>
        <time>2016-04-28T14:44:49Z</time>
      </trkpt>
      <trkpt lat="44.49173" lon="-1.09668">
        <ele>20</ele>
        <time>2016-04-28T14:46:02Z</time>
      </trkpt>
      <trkpt lat="44.49177" lon="-1.09468">
        <ele>20</ele>
        <time>2016-04-28T14:47:02Z</time>
      </trkpt>
      <trkpt lat="44.49191" lon="-1.09273">
        <ele>20</ele>
        <time>2016-04-28T14:48:03Z</time>
      </trkpt>
      <trkpt lat="44.49201" lon="-1.09072">
        <ele>20</ele>
        <time>2016-04-28T14:48:57Z</time>
      </trkpt>
      <trkpt lat="44.49186" lon="-1.08872">
        <ele>20</ele>
        <time>2016-04-28T14:49:49Z</time>
      </trkpt>
      <trkpt lat="44.4918" lon="-1.08668">
        <ele>20</ele>
        <time>2016-04-28T14:50:54Z</time>
      </trkpt>
      <trkpt lat="44.49233" lon="-1.08481">
        <ele>20</ele>
        <time>2016-04-28T14:51:48Z</time>
      </trkpt>
      <trkpt lat="44.49284" lon="-1.08295">
        <ele>20</ele>
        <time>2016-04-28T14:52:40Z</time>
      </trkpt>
      <trkpt lat="44.49338" lon="-1.08105">
        <ele>20</ele>
        <time>2016-04-28T14:53:33Z</time>
      </trkpt>
      <trkpt lat="44.49418" lon="-1.07937">
        <ele>21</ele>
        <time>2016-04-28T14:55:24Z</time>
      </trkpt>
    </trkseg>
  </trk>
</gpx>